Terminal Aerodrome Forecast
Issued by NWS Shreveport, LA

Home | Current Version | Previous Version | Text Only | Print | Product List | Glossary On
Versions: 1 2 3 4 5 6 7 8 9 10 11 12 13 14 15 16 17 18
000
FTUS44 KSHV 091720
TAFGGG
TAF
KGGG 091720Z 0918/1018 07007KT P6SM SCT080
      TEMPO 0920/0924 BKN070
     FM100000 10003KT P6SM BKN060
      TEMPO 1000/1004 SCT060
     FM101400 11006KT P6SM SCT060 SCT250=

USA.gov is the U.S. government's official web portal to all federal, state and local government web resources and services.